Hundvaag 1 weather for Nov 1997
Month no. 125
Obs.
Da.
Temp. Dew Point Precip. Wind
Speed
Wind gusts Cloud cover Press. Humidity Wind dir. Sunny OPT
01.11.1997 10,3   11,0     0          
02.11.1997 5,0   2,0     7       1  
03.11.1997 1,5   0,0     10       1  
04.11.1997 3,1   0,0     0          
05.11.1997 3,3   0,0     10       1  
06.11.1997 7,0   3,0     0          
07.11.1997 9,4   5,0     0          
08.11.1997 7,4   13,0     0       1  
09.11.1997 8,6   0,0     7          
10.11.1997 9,1   2,0     0          
11.11.1997 7,0   7,0     0          
12.11.1997 6,7   5,0     0          
13.11.1997 6,7   14,0     5       1  
14.11.1997 7,0   4,0     1          
15.11.1997 7,2   5,0     9       1  
16.11.1997 7,2   0,0     9       1  
17.11.1997 7,2   0,0     0          
18.11.1997 6,3   0,0     2          
19.11.1997 5,1   0,0     10       1  
20.11.1997 4,2   0,0     9       1  
21.11.1997 5,5   0,0     10       1  
22.11.1997 3,6   0,0     2          
23.11.1997 4,1   0,0     0          
24.11.1997 2,0   0,0     2       1  
25.11.1997 1,0   0,0     10       1  
26.11.1997 -2,7   0,0     10       1  
27.11.1997 -2,0   0,0     10          
28.11.1997 2,8   0,0     0          
29.11.1997 3,4   0,0     0          
30.11.1997 3,1   0,0     2       1  
                       
Avrg/Sum 5,0   71,0     4,2       14